Time;durP1;ratioP1;P1;durP2;ratioP2;P2;SDS_P1;SDS_P2;PMS_P1;PMS_P2;Temp;Humidity;BMP_temperature;BMP_pressure;BME280_temperature;BME280_humidity;BME280_pressure;Samples;Min_cycle;Max_cycle;Signal;HPM_P1;HPM_P2
2023/02/27 00:02:31;;;;;;;13.57;9.57;;;;;;;;;;10341760;28;20067;-61
2023/02/27 00:07:31;;;;;;;12.63;9.75;;;;;;;;;;10336294;28;20078;-61
2023/02/27 00:12:30;;;;;;;9.55;7.68;;;;;;;;;;10342667;28;20510;-61
2023/02/27 00:17:29;;;;;;;11.88;8.43;;;;;;;;;;10341368;28;20078;-61
2023/02/27 00:22:27;;;;;;;8.65;7.68;;;;;;;;;;10343298;28;20493;-62
2023/02/27 00:27:27;;;;;;;9.88;6.45;;;;;;;;;;10338368;28;20064;-62
2023/02/27 00:32:25;;;;;;;10.30;7.50;;;;;;;;;;10354870;27;20048;-62
2023/02/27 00:37:23;;;;;;;11.82;8.82;;;;;;;;;;10339704;28;20079;-62
2023/02/27 00:42:21;;;;;;;10.98;7.78;;;;;;;;;;10341595;28;20090;-62
2023/02/27 00:47:21;;;;;;;10.40;8.25;;;;;;;;;;10348345;28;20150;-62
2023/02/27 00:52:19;;;;;;;9.10;8.18;;;;;;;;;;10355624;27;20044;-62
2023/02/27 00:57:17;;;;;;;10.13;7.97;;;;;;;;;;10341410;28;20076;-62
2023/02/27 01:02:15;;;;;;;8.38;7.50;;;;;;;;;;10342582;28;20516;-61
2023/02/27 01:07:15;;;;;;;9.40;8.05;;;;;;;;;;10340982;28;20060;-61
2023/02/27 01:12:13;;;;;;;11.43;8.52;;;;;;;;;;10337264;28;20052;-61
2023/02/27 01:17:11;;;;;;;7.95;7.25;;;;;;;;;;10333483;28;20537;-61
2023/02/27 01:22:09;;;;;;;8.70;7.55;;;;;;;;;;10331572;28;20060;-61
2023/02/27 01:27:09;;;;;;;9.02;6.95;;;;;;;;;;10342523;28;20055;-61
2023/02/27 01:32:07;;;;;;;7.15;6.45;;;;;;;;;;10340513;28;20067;-61
2023/02/27 01:37:05;;;;;;;10.25;7.25;;;;;;;;;;10337694;28;20060;-61
2023/02/27 01:42:06;;;;;;;8.90;6.95;;;;;;;;;;10340621;28;20102;-61
2023/02/27 01:47:06;;;;;;;9.38;7.32;;;;;;;;;;10335742;28;20526;-61
2023/02/27 01:52:05;;;;;;;7.70;6.18;;;;;;;;;;10335018;28;20593;-61
2023/02/27 01:57:05;;;;;;;11.20;7.53;;;;;;;;;;10338289;28;20048;-62
2023/02/27 02:02:07;;;;;;;9.55;7.28;;;;;;;;;;10340250;28;20104;-61
2023/02/27 02:07:08;;;;;;;7.32;6.68;;;;;;;;;;10347306;28;20059;-61
2023/02/27 02:12:07;;;;;;;9.20;7.72;;;;;;;;;;10347660;28;20521;-61
2023/02/27 02:17:12;;;;;;;8.57;7.80;;;;;;;;;;10346078;28;20060;-62
2023/02/27 02:22:34;;;;;;;8.88;7.05;;;;;;;;;;10346431;28;20079;-61
2023/02/27 02:27:42;;;;;;;8.85;7.40;;;;;;;;;;10333084;28;20083;-60
2023/02/27 02:32:58;;;;;;;9.40;7.55;;;;;;;;;;10359118;28;20055;-61
2023/02/27 02:38:06;;;;;;;8.68;7.28;;;;;;;;;;10339954;28;20040;-61
2023/02/27 02:43:10;;;;;;;9.77;7.90;;;;;;;;;;10358372;27;20071;-60
2023/02/27 02:48:11;;;;;;;10.63;8.60;;;;;;;;;;10349883;28;20076;-61
2023/02/27 02:53:13;;;;;;;8.95;7.53;;;;;;;;;;10350176;28;20051;-62
2023/02/27 02:58:16;;;;;;;11.07;8.00;;;;;;;;;;10343814;28;20072;-61
2023/02/27 03:03:19;;;;;;;9.65;7.80;;;;;;;;;;10347233;28;20056;-63
2023/02/27 03:08:20;;;;;;;12.07;9.43;;;;;;;;;;10347289;28;20427;-62
2023/02/27 03:13:22;;;;;;;12.48;9.85;;;;;;;;;;10345608;28;20077;-61
2023/02/27 03:18:23;;;;;;;15.18;8.82;;;;;;;;;;10339000;28;20088;-62
2023/02/27 03:23:23;;;;;;;13.88;9.65;;;;;;;;;;10345005;28;20271;-61
2023/02/27 03:28:25;;;;;;;13.80;9.27;;;;;;;;;;10340264;28;20048;-61
2023/02/27 03:33:29;;;;;;;12.07;9.73;;;;;;;;;;10338980;28;20080;-62
2023/02/27 03:38:30;;;;;;;20.73;10.98;;;;;;;;;;10349407;28;20067;-62
2023/02/27 03:43:32;;;;;;;14.23;11.75;;;;;;;;;;10347415;28;20076;-61
2023/02/27 03:48:30;;;;;;;12.38;10.35;;;;;;;;;;10335194;28;20076;-62
2023/02/27 03:53:33;;;;;;;13.93;10.80;;;;;;;;;;10346571;28;20068;-62
2023/02/27 03:58:33;;;;;;;15.40;11.93;;;;;;;;;;10339738;28;20087;-62
2023/02/27 04:03:32;;;;;;;18.67;12.02;;;;;;;;;;10341780;28;20044;-62
2023/02/27 04:08:43;;;;;;;18.70;12.77;;;;;;;;;;10347585;28;20054;-61
2023/02/27 04:13:47;;;;;;;16.65;12.30;;;;;;;;;;10342758;28;20072;-62
2023/02/27 04:18:51;;;;;;;14.63;11.80;;;;;;;;;;10342183;28;20080;-63
2023/02/27 04:23:56;;;;;;;18.00;13.15;;;;;;;;;;10335230;28;20807;-62
2023/02/27 04:29:01;;;;;;;19.35;13.32;;;;;;;;;;10344161;28;20063;-62
2023/02/27 04:34:01;;;;;;;21.02;14.88;;;;;;;;;;10341447;28;20076;-62
2023/02/27 04:39:03;;;;;;;22.25;14.60;;;;;;;;;;10341498;28;20072;-62
2023/02/27 04:44:04;;;;;;;20.10;11.30;;;;;;;;;;10335777;28;20080;-62
2023/02/27 04:49:03;;;;;;;19.85;12.55;;;;;;;;;;10334399;28;20072;-62
2023/02/27 04:54:04;;;;;;;18.83;11.43;;;;;;;;;;10335817;28;20067;-61
2023/02/27 04:59:06;;;;;;;24.58;12.15;;;;;;;;;;10339648;28;20076;-62
2023/02/27 05:04:05;;;;;;;18.27;12.25;;;;;;;;;;10340216;28;20072;-61
2023/02/27 05:09:08;;;;;;;20.00;12.07;;;;;;;;;;10338466;28;20514;-61
2023/02/27 05:14:12;;;;;;;15.57;10.77;;;;;;;;;;10337419;28;20064;-62
2023/02/27 05:19:10;;;;;;;18.13;11.30;;;;;;;;;;10337713;28;20083;-62
2023/02/27 05:24:12;;;;;;;16.85;12.13;;;;;;;;;;10342347;28;20102;-62
2023/02/27 05:29:16;;;;;;;19.58;12.23;;;;;;;;;;10341493;28;20048;-61
2023/02/27 05:34:18;;;;;;;21.40;14.05;;;;;;;;;;10339546;28;20106;-62
2023/02/27 05:39:17;;;;;;;23.70;15.48;;;;;;;;;;10346048;28;20071;-62
2023/02/27 05:44:18;;;;;;;23.23;14.30;;;;;;;;;;10352420;28;20068;-63
2023/02/27 05:49:18;;;;;;;30.00;18.73;;;;;;;;;;10345989;28;20072;-61
2023/02/27 05:54:21;;;;;;;35.03;19.50;;;;;;;;;;10350659;28;20078;-63
2023/02/27 05:59:23;;;;;;;32.42;17.77;;;;;;;;;;10345755;28;20131;-62
2023/02/27 06:04:22;;;;;;;39.80;23.52;;;;;;;;;;10347827;28;20501;-62
2023/02/27 06:09:20;;;;;;;29.83;19.75;;;;;;;;;;10348956;28;20066;-62
2023/02/27 06:14:19;;;;;;;18.88;14.27;;;;;;;;;;10345084;28;20072;-62
2023/02/27 06:19:18;;;;;;;29.27;17.50;;;;;;;;;;10352326;28;20480;-62
2023/02/27 06:24:16;;;;;;;27.95;21.10;;;;;;;;;;10351965;28;20068;-62
2023/02/27 06:29:14;;;;;;;30.77;22.92;;;;;;;;;;10348909;28;20096;-62
2023/02/27 06:34:13;;;;;;;31.90;20.40;;;;;;;;;;10350866;28;20075;-62
2023/02/27 06:39:12;;;;;;;30.27;22.88;;;;;;;;;;10344127;28;20086;-63
2023/02/27 06:44:10;;;;;;;29.90;18.83;;;;;;;;;;10342972;28;20053;-63
2023/02/27 06:49:08;;;;;;;41.97;32.20;;;;;;;;;;10345725;28;20066;-63
2023/02/27 06:54:07;;;;;;;45.90;31.58;;;;;;;;;;10344657;28;20079;-63
2023/02/27 06:59:06;;;;;;;30.13;21.63;;;;;;;;;;10347141;28;20087;-63
2023/02/27 07:04:05;;;;;;;27.83;21.00;;;;;;;;;;10342613;28;20481;-63
2023/02/27 07:09:03;;;;;;;24.02;17.73;;;;;;;;;;10352338;28;20078;-62
2023/02/27 07:14:04;;;;;;;39.13;29.98;;;;;;;;;;10356375;28;20772;-62
2023/02/27 07:19:03;;;;;;;37.10;26.00;;;;;;;;;;10342654;28;20074;-62
2023/02/27 07:24:04;;;;;;;40.22;25.67;;;;;;;;;;10350262;28;20666;-62
2023/02/27 07:29:02;;;;;;;39.45;28.83;;;;;;;;;;10351177;28;20711;-62
2023/02/27 07:34:00;;;;;;;42.90;28.35;;;;;;;;;;10351030;28;20055;-63
2023/02/27 07:39:02;;;;;;;29.80;19.33;;;;;;;;;;10342627;28;20548;-63
2023/02/27 07:44:00;;;;;;;22.17;16.40;;;;;;;;;;10350025;28;20090;-62
2023/02/27 07:48:58;;;;;;;24.25;17.80;;;;;;;;;;10348836;28;20072;-62
2023/02/27 07:53:57;;;;;;;22.77;17.42;;;;;;;;;;10342848;28;20060;-62
2023/02/27 07:58:57;;;;;;;41.28;29.58;;;;;;;;;;10352167;28;20462;-63
2023/02/27 08:03:55;;;;;;;39.17;27.80;;;;;;;;;;10348483;28;20511;-62
2023/02/27 08:08:53;;;;;;;24.50;20.70;;;;;;;;;;10343959;28;20071;-62
2023/02/27 08:13:52;;;;;;;26.77;21.70;;;;;;;;;;10342217;28;20071;-63
2023/02/27 08:19:00;;;;;;;25.88;19.88;;;;;;;;;;10332498;28;20477;-62
2023/02/27 08:23:58;;;;;;;24.40;21.05;;;;;;;;;;10341785;28;20090;-61
2023/02/27 08:28:56;;;;;;;24.95;18.05;;;;;;;;;;10339274;28;20469;-62
2023/02/27 08:33:54;;;;;;;30.25;21.52;;;;;;;;;;10341166;28;20060;-61
2023/02/27 08:39:07;;;;;;;30.58;23.48;;;;;;;;;;10340115;28;20055;-63
2023/02/27 08:44:05;;;;;;;33.15;25.60;;;;;;;;;;10344690;28;20087;-61
2023/02/27 08:49:04;;;;;;;29.92;24.90;;;;;;;;;;10338454;28;20060;-62
2023/02/27 08:54:02;;;;;;;26.85;22.92;;;;;;;;;;10344041;28;20594;-62
2023/02/27 08:59:02;;;;;;;25.77;22.33;;;;;;;;;;10335279;28;20071;-63
2023/02/27 09:04:01;;;;;;;30.60;24.88;;;;;;;;;;10341460;28;20502;-62
2023/02/27 09:08:59;;;;;;;25.45;20.42;;;;;;;;;;10338867;28;20053;-61
2023/02/27 09:13:57;;;;;;;23.50;20.65;;;;;;;;;;10343526;28;20090;-62
2023/02/27 09:18:57;;;;;;;24.05;21.15;;;;;;;;;;10343344;28;20074;-62
2023/02/27 09:23:57;;;;;;;23.60;21.05;;;;;;;;;;10339851;28;20498;-62
2023/02/27 09:29:04;;;;;;;24.52;22.10;;;;;;;;;;10338943;28;20064;-63
2023/02/27 09:34:03;;;;;;;21.35;19.17;;;;;;;;;;10341286;28;20105;-63
2023/02/27 09:39:02;;;;;;;19.52;17.20;;;;;;;;;;10338213;28;20072;-63
2023/02/27 09:44:00;;;;;;;20.17;16.30;;;;;;;;;;10340152;28;20076;-63
2023/02/27 09:48:59;;;;;;;19.52;17.42;;;;;;;;;;10337064;28;20063;-63
2023/02/27 09:54:01;;;;;;;17.48;15.68;;;;;;;;;;10339952;28;20064;-63
2023/02/27 09:59:03;;;;;;;19.95;16.98;;;;;;;;;;10348730;28;20060;-63
2023/02/27 10:04:12;;;;;;;21.58;19.30;;;;;;;;;;10342102;28;20082;-63
2023/02/27 10:09:19;;;;;;;23.20;19.05;;;;;;;;;;10334729;28;20060;-62
2023/02/27 10:14:25;;;;;;;19.17;17.20;;;;;;;;;;10331800;28;20060;-62
2023/02/27 10:19:26;;;;;;;20.90;18.90;;;;;;;;;;10338345;28;20486;-63
2023/02/27 10:24:28;;;;;;;22.25;19.95;;;;;;;;;;10336637;28;20075;-63
2023/02/27 10:29:29;;;;;;;27.10;20.65;;;;;;;;;;10342812;28;20454;-62
2023/02/27 10:34:28;;;;;;;22.50;19.25;;;;;;;;;;10348280;28;20071;-62
2023/02/27 10:39:28;;;;;;;28.55;25.65;;;;;;;;;;10346001;28;20079;-62
2023/02/27 10:44:27;;;;;;;27.13;24.23;;;;;;;;;;10352130;28;20070;-63
2023/02/27 10:49:25;;;;;;;24.55;22.00;;;;;;;;;;10347923;28;20079;-62
2023/02/27 10:54:24;;;;;;;25.13;22.60;;;;;;;;;;10343726;28;20060;-63
2023/02/27 10:59:25;;;;;;;20.45;18.35;;;;;;;;;;10340654;28;20509;-63
2023/02/27 11:04:25;;;;;;;19.85;17.88;;;;;;;;;;10345761;28;20059;-63
2023/02/27 11:09:24;;;;;;;18.48;16.65;;;;;;;;;;10345509;28;20067;-64
2023/02/27 11:14:26;;;;;;;18.65;16.67;;;;;;;;;;10345394;28;20078;-63
2023/02/27 11:19:26;;;;;;;25.58;19.88;;;;;;;;;;10347904;28;20052;-63
2023/02/27 11:24:24;;;;;;;21.92;19.83;;;;;;;;;;10339653;28;20075;-63
2023/02/27 11:29:23;;;;;;;23.67;21.30;;;;;;;;;;10344475;28;20517;-62
2023/02/27 11:34:24;;;;;;;20.02;18.08;;;;;;;;;;10343445;28;20197;-63
2023/02/27 11:39:27;;;;;;;24.55;20.77;;;;;;;;;;10343098;28;20067;-64
2023/02/27 11:44:27;;;;;;;19.45;17.60;;;;;;;;;;10341577;28;20082;-63
2023/02/27 11:49:57;;;;;;;19.35;17.27;;;;;;;;;;10335658;28;20564;-63
2023/02/27 11:54:57;;;;;;;17.45;15.95;;;;;;;;;;10336505;28;20072;-64
2023/02/27 11:59:58;;;;;;;17.15;15.50;;;;;;;;;;10342649;28;20068;-64
2023/02/27 12:04:59;;;;;;;13.80;12.50;;;;;;;;;;10340744;28;20091;-63
2023/02/27 12:10:01;;;;;;;13.75;11.07;;;;;;;;;;10342099;28;20086;-63
2023/02/27 12:15:04;;;;;;;12.82;11.23;;;;;;;;;;10340542;28;20526;-63
2023/02/27 12:20:23;;;;;;;11.75;10.57;;;;;;;;;;10335148;28;20075;-64
2023/02/27 12:25:26;;;;;;;23.38;19.05;;;;;;;;;;10341400;28;20076;-64
2023/02/27 12:30:26;;;;;;;11.57;10.32;;;;;;;;;;10334647;28;20568;-63
2023/02/27 12:35:27;;;;;;;10.50;9.50;;;;;;;;;;10336909;28;20075;-64
2023/02/27 12:40:29;;;;;;;12.60;10.45;;;;;;;;;;10334962;28;20081;-63
2023/02/27 12:45:34;;;;;;;12.43;10.18;;;;;;;;;;10342683;28;20064;-63
2023/02/27 12:50:40;;;;;;;10.88;9.77;;;;;;;;;;10342168;28;20071;-63
2023/02/27 12:55:41;;;;;;;11.50;10.40;;;;;;;;;;10333894;28;20068;-64
2023/02/27 13:00:44;;;;;;;10.63;9.63;;;;;;;;;;10345564;28;20076;-63
2023/02/27 13:05:47;;;;;;;10.45;9.45;;;;;;;;;;10341687;28;20072;-63
2023/02/27 13:10:48;;;;;;;22.15;16.73;;;;;;;;;;10339504;28;20071;-64
2023/02/27 13:15:49;;;;;;;11.15;10.07;;;;;;;;;;10338521;28;20450;-64
2023/02/27 13:20:51;;;;;;;18.55;12.65;;;;;;;;;;10334821;28;20099;-64
2023/02/27 13:25:50;;;;;;;10.48;9.38;;;;;;;;;;10333880;28;20489;-63
2023/02/27 13:30:52;;;;;;;10.68;9.68;;;;;;;;;;10340702;28;20063;-63
2023/02/27 13:35:54;;;;;;;14.27;12.88;;;;;;;;;;10338710;28;20071;-64
2023/02/27 13:40:53;;;;;;;10.23;9.07;;;;;;;;;;10338382;28;20088;-64
2023/02/27 13:45:52;;;;;;;18.77;16.98;;;;;;;;;;10341616;28;20079;-63
2023/02/27 13:50:52;;;;;;;15.15;13.85;;;;;;;;;;10340218;28;20072;-64
2023/02/27 13:55:56;;;;;;;16.15;14.45;;;;;;;;;;10336682;28;20104;-64
2023/02/27 14:00:56;;;;;;;15.73;14.18;;;;;;;;;;10345250;28;20075;-64
2023/02/27 14:05:56;;;;;;;22.90;16.42;;;;;;;;;;10354770;28;20078;-63
2023/02/27 14:10:56;;;;;;;20.98;16.05;;;;;;;;;;10373982;28;20083;-63
2023/02/27 14:15:56;;;;;;;15.40;13.30;;;;;;;;;;10376298;28;20075;-63
2023/02/27 14:20:55;;;;;;;10.77;9.73;;;;;;;;;;10371845;28;20067;-63
2023/02/27 14:25:54;;;;;;;28.98;20.77;;;;;;;;;;10373731;28;20060;-62
2023/02/27 14:30:54;;;;;;;41.63;33.83;;;;;;;;;;10376265;28;20071;-63
2023/02/27 14:35:59;;;;;;;22.00;17.20;;;;;;;;;;10370241;28;20066;-63
2023/02/27 14:41:05;;;;;;;19.08;17.10;;;;;;;;;;10363517;28;20059;-63
2023/02/27 14:46:05;;;;;;;25.63;17.15;;;;;;;;;;10346779;28;20538;-63
2023/02/27 14:51:06;;;;;;;23.08;18.92;;;;;;;;;;10344177;28;20991;-64
2023/02/27 14:56:04;;;;;;;26.25;16.48;;;;;;;;;;10344088;28;20705;-63
2023/02/27 15:01:04;;;;;;;16.67;14.93;;;;;;;;;;10343076;28;20059;-63
2023/02/27 15:06:12;;;;;;;12.98;11.05;;;;;;;;;;10343155;28;20586;-63
2023/02/27 15:11:13;;;;;;;42.50;29.45;;;;;;;;;;10337736;28;20064;-64
2023/02/27 15:16:18;;;;;;;28.27;20.02;;;;;;;;;;10335279;28;20074;-63
2023/02/27 15:21:16;;;;;;;;;;;;;;;;;;10344890;28;20076;-64
2023/02/27 15:26:16;;;;;;;31.48;22.95;;;;;;;;;;10341623;28;19964;-63
2023/02/27 15:31:21;;;;;;;51.13;35.80;;;;;;;;;;10340606;28;20077;-64
2023/02/27 15:36:20;;;;;;;28.40;22.30;;;;;;;;;;10339270;28;20071;-64
2023/02/27 15:41:20;;;;;;;42.97;28.55;;;;;;;;;;10338208;28;20087;-64
2023/02/27 15:46:18;;;;;;;54.03;40.00;;;;;;;;;;10339256;28;20083;-64
2023/02/27 15:51:17;;;;;;;19.30;16.73;;;;;;;;;;10347582;28;20067;-64
2023/02/27 15:56:16;;;;;;;50.88;39.08;;;;;;;;;;10337486;28;20080;-64
2023/02/27 16:01:18;;;;;;;74.28;66.57;;;;;;;;;;10337222;28;21005;-63
2023/02/27 16:06:18;;;;;;;38.63;31.42;;;;;;;;;;10340728;28;20079;-64
2023/02/27 16:11:19;;;;;;;30.23;24.38;;;;;;;;;;10339635;28;20064;-63
2023/02/27 16:16:24;;;;;;;24.10;21.00;;;;;;;;;;10337261;28;20071;-64
2023/02/27 16:21:23;;;;;;;62.03;42.53;;;;;;;;;;10337349;28;20067;-64
2023/02/27 16:26:25;;;;;;;56.47;40.17;;;;;;;;;;10346124;28;20079;-63
2023/02/27 16:31:27;;;;;;;37.90;30.60;;;;;;;;;;10342434;28;20074;-63
2023/02/27 16:36:26;;;;;;;47.28;35.25;;;;;;;;;;10332645;28;20083;-64
2023/02/27 16:41:25;;;;;;;45.00;36.25;;;;;;;;;;10334609;28;20447;-64
2023/02/27 16:46:23;;;;;;;52.33;39.25;;;;;;;;;;10340313;28;20078;-64
2023/02/27 16:51:24;;;;;;;52.97;41.25;;;;;;;;;;10345591;28;20056;-64
2023/02/27 16:56:23;;;;;;;44.83;34.58;;;;;;;;;;10344064;28;20068;-64
2023/02/27 17:01:34;;;;;;;27.20;20.63;;;;;;;;;;10349331;28;20678;-63
2023/02/27 17:06:34;;;;;;;21.60;19.17;;;;;;;;;;10339348;28;20076;-63
2023/02/27 17:11:32;;;;;;;24.05;16.40;;;;;;;;;;10340876;28;20071;-64
2023/02/27 17:16:30;;;;;;;21.30;16.63;;;;;;;;;;10336540;28;20508;-64
2023/02/27 17:21:29;;;;;;;22.45;16.33;;;;;;;;;;10334993;28;20497;-64
2023/02/27 17:26:29;;;;;;;22.30;18.00;;;;;;;;;;10335265;28;20086;-63
2023/02/27 17:31:28;;;;;;;16.85;15.02;;;;;;;;;;10335505;28;20082;-63
2023/02/27 17:36:26;;;;;;;16.27;12.40;;;;;;;;;;10343342;28;20553;-63
2023/02/27 17:41:25;;;;;;;19.15;12.73;;;;;;;;;;10342605;28;20531;-63
2023/02/27 17:46:25;;;;;;;16.67;12.00;;;;;;;;;;10350775;28;20080;-63
2023/02/27 17:51:24;;;;;;;17.38;13.15;;;;;;;;;;10343704;28;20063;-63
2023/02/27 17:56:22;;;;;;;17.13;12.30;;;;;;;;;;10347585;28;20511;-63
2023/02/27 18:01:24;;;;;;;13.40;11.02;;;;;;;;;;10355157;28;20620;-63
2023/02/27 18:06:24;;;;;;;31.42;21.60;;;;;;;;;;10349988;28;20075;-64
2023/02/27 18:11:23;;;;;;;21.58;16.55;;;;;;;;;;10337898;28;20063;-63
2023/02/27 18:16:21;;;;;;;20.65;16.15;;;;;;;;;;10346219;28;20076;-63
2023/02/27 18:21:21;;;;;;;20.17;14.02;;;;;;;;;;10339797;28;20126;-64
2023/02/27 18:26:22;;;;;;;17.50;13.98;;;;;;;;;;10346466;28;20075;-64
2023/02/27 18:31:30;;;;;;;18.23;15.25;;;;;;;;;;10349584;28;20097;-63
2023/02/27 18:36:28;;;;;;;18.95;14.25;;;;;;;;;;10344596;28;20497;-64
2023/02/27 18:41:29;;;;;;;25.90;17.95;;;;;;;;;;10336069;28;20083;-64
2023/02/27 18:46:27;;;;;;;31.55;17.48;;;;;;;;;;10345483;28;20063;-63
2023/02/27 18:51:26;;;;;;;17.83;13.70;;;;;;;;;;10345430;28;20076;-64
2023/02/27 18:56:25;;;;;;;18.15;14.05;;;;;;;;;;10344395;28;20479;-63
2023/02/27 19:01:27;;;;;;;16.38;12.80;;;;;;;;;;10337646;28;20524;-64
2023/02/27 19:06:25;;;;;;;13.95;11.75;;;;;;;;;;10343682;28;20075;-64
2023/02/27 19:11:24;;;;;;;21.63;16.48;;;;;;;;;;10341034;28;20071;-64
2023/02/27 19:16:22;;;;;;;19.85;15.88;;;;;;;;;;10340594;28;20071;-64
2023/02/27 19:21:21;;;;;;;26.20;18.58;;;;;;;;;;10335260;28;20209;-63
2023/02/27 19:26:20;;;;;;;18.60;14.65;;;;;;;;;;10340415;28;20079;-63
2023/02/27 19:31:18;;;;;;;16.55;14.43;;;;;;;;;;10342275;28;20531;-63
2023/02/27 19:36:18;;;;;;;17.48;14.48;;;;;;;;;;10340138;28;20071;-63
2023/02/27 19:41:19;;;;;;;18.10;13.13;;;;;;;;;;10345721;28;20083;-63
2023/02/27 19:46:18;;;;;;;16.88;14.43;;;;;;;;;;10341504;28;20067;-63
2023/02/27 19:51:17;;;;;;;36.10;22.13;;;;;;;;;;10344573;28;20154;-63
2023/02/27 19:56:16;;;;;;;30.05;19.08;;;;;;;;;;10341987;28;20071;-64
2023/02/27 20:01:21;;;;;;;18.35;13.55;;;;;;;;;;10342246;28;20067;-63
2023/02/27 20:06:20;;;;;;;25.50;16.88;;;;;;;;;;10345486;28;20098;-64
2023/02/27 20:11:20;;;;;;;49.53;31.65;;;;;;;;;;10346423;28;20145;-64
2023/02/27 20:16:20;;;;;;;76.65;45.30;;;;;;;;;;10342694;28;20079;-63
2023/02/27 20:21:21;;;;;;;35.28;23.33;;;;;;;;;;10346703;28;20084;-63
2023/02/27 20:26:20;;;;;;;22.65;16.33;;;;;;;;;;10346159;28;20067;-63
2023/02/27 20:31:20;;;;;;;17.27;12.25;;;;;;;;;;10339101;28;20055;-63
2023/02/27 20:36:18;;;;;;;12.70;10.10;;;;;;;;;;10337694;28;20064;-63
2023/02/27 20:41:18;;;;;;;14.90;11.82;;;;;;;;;;10347805;28;20083;-64
2023/02/27 20:46:18;;;;;;;16.55;12.13;;;;;;;;;;10344471;28;20075;-63
2023/02/27 20:51:18;;;;;;;11.27;10.02;;;;;;;;;;10344742;28;20068;-63
2023/02/27 20:56:20;;;;;;;11.23;10.02;;;;;;;;;;10343435;28;20056;-64
2023/02/27 21:01:19;;;;;;;13.30;8.48;;;;;;;;;;10335616;28;20525;-64
2023/02/27 21:06:18;;;;;;;11.00;8.38;;;;;;;;;;10343455;28;20078;-63
2023/02/27 21:11:18;;;;;;;19.30;10.50;;;;;;;;;;10338570;28;20078;-63
2023/02/27 21:16:18;;;;;;;8.85;7.47;;;;;;;;;;10337908;28;20074;-63
2023/02/27 21:21:17;;;;;;;10.80;7.70;;;;;;;;;;10344098;28;20079;-63
2023/02/27 21:26:17;;;;;;;8.90;7.40;;;;;;;;;;10345127;28;20487;-63
2023/02/27 21:31:15;;;;;;;15.32;9.15;;;;;;;;;;10343400;28;20064;-63
2023/02/27 21:36:15;;;;;;;8.32;7.53;;;;;;;;;;10346101;28;20056;-64
2023/02/27 21:41:13;;;;;;;8.48;7.47;;;;;;;;;;10340644;28;20083;-63
2023/02/27 21:46:12;;;;;;;7.60;6.07;;;;;;;;;;10339776;28;20075;-63
2023/02/27 21:51:11;;;;;;;8.63;6.18;;;;;;;;;;10341223;28;20486;-63
2023/02/27 21:56:10;;;;;;;11.18;6.05;;;;;;;;;;10347359;28;20060;-63
2023/02/27 22:01:14;;;;;;;8.50;5.68;;;;;;;;;;10344423;28;20063;-62
2023/02/27 22:06:13;;;;;;;7.00;5.68;;;;;;;;;;10341314;28;20079;-63
2023/02/27 22:11:13;;;;;;;6.18;5.57;;;;;;;;;;10336416;28;20079;-63
2023/02/27 22:16:12;;;;;;;5.60;4.80;;;;;;;;;;10333637;28;20076;-63
2023/02/27 22:21:11;;;;;;;10.73;8.32;;;;;;;;;;10336030;28;20076;-63
2023/02/27 22:26:10;;;;;;;7.15;6.22;;;;;;;;;;10350109;28;20075;-63
2023/02/27 22:31:11;;;;;;;7.38;6.68;;;;;;;;;;10347755;28;20063;-62
2023/02/27 22:36:10;;;;;;;8.50;6.60;;;;;;;;;;10347736;28;20071;-61
2023/02/27 22:41:09;;;;;;;9.80;6.07;;;;;;;;;;10351500;28;20105;-61
2023/02/27 22:46:08;;;;;;;8.10;6.80;;;;;;;;;;10347333;28;20083;-61
2023/02/27 22:51:09;;;;;;;11.98;7.88;;;;;;;;;;10350205;28;20075;-61
2023/02/27 22:56:08;;;;;;;8.82;7.72;;;;;;;;;;10339217;28;20071;-62
2023/02/27 23:01:10;;;;;;;11.60;6.57;;;;;;;;;;10339416;28;20075;-63
2023/02/27 23:06:10;;;;;;;7.78;6.45;;;;;;;;;;10344417;28;20083;-63
2023/02/27 23:11:09;;;;;;;7.55;6.03;;;;;;;;;;10341701;28;20083;-64
2023/02/27 23:16:12;;;;;;;7.38;6.50;;;;;;;;;;10332907;28;20078;-62
2023/02/27 23:21:12;;;;;;;13.35;9.00;;;;;;;;;;10352961;28;20068;-63
2023/02/27 23:26:11;;;;;;;11.63;7.93;;;;;;;;;;10352214;27;20071;-63
2023/02/27 23:31:09;;;;;;;7.68;6.95;;;;;;;;;;10343611;28;20060;-62
2023/02/27 23:36:07;;;;;;;7.70;6.90;;;;;;;;;;10348780;28;20063;-63
2023/02/27 23:41:08;;;;;;;8.98;6.68;;;;;;;;;;10344196;28;20517;-63
2023/02/27 23:46:06;;;;;;;7.75;6.80;;;;;;;;;;10337190;28;20075;-62
2023/02/27 23:51:06;;;;;;;6.78;6.18;;;;;;;;;;10340651;28;20464;-63
2023/02/27 23:56:12;;;;;;;7.97;7.18;;;;;;;;;;10343309;28;20095;-62
